Terminal Aerodrome Forecast
Issued by NWS

Home | Current Version | Previous Version | Text Only | Print | Product List | Glossary On
Versions: 1 2 3 4 5 6 7 8 9 10 11 12 13
544
FTUS46 KSGX 211137
TAFTRM
TAF
KTRM 211137Z 2112/2212 29006KT P6SM BKN070
     FM211400 33013KT P6SM SCT080
     FM220300 VRB06KT P6SM BKN100=

USA.gov is the U.S. government's official web portal to all federal, state and local government web resources and services.